Time;durP1;ratioP1;P1;durP2;ratioP2;P2;SDS_P1;SDS_P2;PMS_P1;PMS_P2;Temp;Humidity;BMP_temperature;BMP_pressure;BME280_temperature;BME280_humidity;BME280_pressure;Samples;Min_cycle;Max_cycle;Signal;HPM_P1;HPM_P2
2024/04/23 00:02:18;;;;;;;10.05;3.80;;;;;;;22.74;55.69;100749.25;7394323;19;20010;-90
2024/04/23 00:04:44;;;;;;;11.40;3.42;;;;;;;22.48;55.30;100761.97;7394258;19;20014;-94
2024/04/23 00:07:10;;;;;;;9.15;3.55;;;;;;;22.21;55.90;100754.59;7396249;19;20018;-93
2024/04/23 00:09:36;;;;;;;1.92;1.83;;;;;;;22.31;55.23;100752.91;7393847;19;20018;-93
2024/04/23 00:12:02;;;;;;;12.48;4.07;;;;;;;22.36;54.68;100760.59;7393456;19;20524;-93
2024/04/23 00:14:28;;;;;;;1.73;1.52;;;;;;;22.25;54.72;100755.03;7392834;19;20018;-93
2024/04/23 00:17:04;;;;;;;6.85;2.30;;;;;;;22.19;54.51;100760.03;7393448;19;20029;-93
2024/04/23 00:19:31;;;;;;;7.90;2.83;;;;;;;22.30;54.35;100761.97;7392616;19;20010;-93
2024/04/23 00:21:57;;;;;;;3.22;2.20;;;;;;;22.40;54.60;100766.72;7395711;19;20078;-93
2024/04/23 00:24:23;;;;;;;3.28;1.70;;;;;;;22.42;54.48;100764.09;7394186;19;20416;-93
2024/04/23 00:27:00;;;;;;;3.72;1.55;;;;;;;21.96;55.24;100761.56;7395110;19;20019;-92
2024/04/23 00:29:28;;;;;;;5.65;2.97;;;;;;;21.75;55.50;100757.66;7392796;19;20751;-92
2024/04/23 00:31:55;;;;;;;5.18;2.97;;;;;;;22.24;54.46;100762.00;7393518;19;20010;-93
2024/04/23 00:34:22;;;;;;;3.47;1.77;;;;;;;22.23;54.48;100763.34;7392780;19;20014;-92
2024/04/23 00:36:58;;;;;;;6.75;4.20;;;;;;;22.45;54.12;100763.06;7395995;19;20036;-93
2024/04/23 00:39:25;;;;;;;14.55;3.75;;;;;;;22.66;53.76;100754.00;7394169;19;20022;-94
2024/04/23 00:41:52;;;;;;;9.32;2.38;;;;;;;22.20;54.14;100749.44;7393003;19;20739;-92
2024/04/23 00:44:18;;;;;;;11.55;3.47;;;;;;;21.89;54.35;100745.91;7395794;19;20010;-91
2024/04/23 00:46:46;;;;;;;9.13;2.90;;;;;;;22.21;54.07;100748.91;7391080;19;20018;-87
2024/04/23 00:49:13;;;;;;;6.05;1.73;;;;;;;22.22;53.57;100756.09;7391257;19;20094;-88
2024/04/23 00:51:40;;;;;;;7.22;2.90;;;;;;;21.58;54.15;100762.72;7391637;19;20021;-87
2024/04/23 00:54:09;;;;;;;4.43;1.48;;;;;;;21.23;54.52;100742.94;7388840;19;20020;-87
2024/04/23 00:56:36;;;;;;;1.40;1.05;;;;;;;21.05;54.59;100747.25;7392022;19;20014;-88
2024/04/23 00:59:04;;;;;;;9.65;2.72;;;;;;;20.98;54.63;100748.53;7392860;19;20021;-87
2024/04/23 01:01:35;;;;;;;6.32;3.35;;;;;;;20.88;54.33;100761.47;7389304;19;20481;-87
2024/04/23 01:04:05;;;;;;;4.22;1.38;;;;;;;20.99;54.40;100754.97;7391265;19;20018;-87
2024/04/23 01:06:32;;;;;;;5.85;1.83;;;;;;;20.70;54.30;100753.63;7393208;19;20022;-87
2024/04/23 01:08:58;;;;;;;1.95;1.67;;;;;;;20.50;54.71;100751.16;7391206;19;20084;-87
2024/04/23 01:11:24;;;;;;;5.32;1.52;;;;;;;20.52;54.53;100744.97;7387720;19;20034;-86
2024/04/23 01:13:51;;;;;;;7.10;2.38;;;;;;;20.45;54.20;100751.97;7389642;19;20014;-86
2024/04/23 01:16:20;;;;;;;7.78;2.03;;;;;;;20.47;53.89;100743.72;7390431;19;20011;-87
2024/04/23 01:18:47;;;;;;;3.60;1.75;;;;;;;20.57;53.21;100759.13;7388999;19;20761;-87
2024/04/23 01:21:20;;;;;;;1.25;1.17;;;;;;;20.65;53.03;100750.81;7387668;19;20031;-87
2024/04/23 01:23:52;;;;;;;2.65;1.83;;;;;;;20.56;52.85;100746.25;7391111;19;20121;-87
2024/04/23 01:26:20;;;;;;;13.43;2.10;;;;;;;20.42;52.81;100745.28;7392801;19;20103;-86
2024/04/23 01:28:46;;;;;;;8.70;3.15;;;;;;;20.26;53.19;100745.38;7391618;19;20033;-87
2024/04/23 01:31:14;;;;;;;1.83;1.60;;;;;;;20.04;53.81;100742.59;7387449;19;20015;-86
2024/04/23 01:33:42;;;;;;;4.32;1.73;;;;;;;20.13;53.72;100737.44;7387901;19;20018;-86
2024/04/23 01:36:10;;;;;;;4.03;1.85;;;;;;;20.23;53.48;100746.41;7390517;19;20018;-87
2024/04/23 01:38:37;;;;;;;1.88;1.63;;;;;;;20.73;52.44;100737.63;7390385;19;20394;-86
2024/04/23 01:41:05;;;;;;;2.22;1.40;;;;;;;20.50;52.75;100731.34;7388232;19;20052;-86
2024/04/23 01:43:32;;;;;;;1.38;1.27;;;;;;;20.56;53.06;100734.91;7389324;19;20007;-87
2024/04/23 01:45:59;;;;;;;1.05;1.05;;;;;;;20.37;52.90;100745.31;7387085;19;20046;-87
2024/04/23 01:48:26;;;;;;;1.48;1.38;;;;;;;20.32;52.84;100740.44;7391244;19;20002;-86
2024/04/23 01:50:53;;;;;;;0.47;0.47;;;;;;;20.23;52.94;100740.75;7387565;19;20379;-86
2024/04/23 01:53:19;;;;;;;5.78;1.25;;;;;;;19.74;53.58;100738.84;7389217;19;20038;-86
2024/04/23 01:55:47;;;;;;;0.85;0.85;;;;;;;19.62;54.10;100738.09;7392228;19;20560;-86
2024/04/23 01:58:13;;;;;;;0.68;0.65;;;;;;;19.72;54.25;100747.06;7391335;19;20018;-87
2024/04/23 02:00:40;;;;;;;3.15;1.42;;;;;;;19.86;53.85;100740.34;7387546;19;20500;-87
2024/04/23 02:03:06;;;;;;;14.80;2.35;;;;;;;19.82;53.73;100729.31;7388215;19;20018;-86
2024/04/23 02:05:33;;;;;;;0.85;0.85;;;;;;;19.73;54.22;100740.88;7387555;19;20029;-87
2024/04/23 02:07:59;;;;;;;0.45;0.45;;;;;;;19.94;54.07;100735.69;7392248;19;20098;-87
2024/04/23 02:10:25;;;;;;;0.57;0.57;;;;;;;19.78;54.29;100733.69;7390663;19;20022;-87
2024/04/23 02:12:52;;;;;;;0.75;0.30;;;;;;;19.84;54.15;100731.63;7388317;19;20014;-87
2024/04/23 02:15:18;;;;;;;3.92;1.15;;;;;;;19.68;54.06;100736.78;7389490;19;20046;-86
2024/04/23 02:17:45;;;;;;;0.90;0.90;;;;;;;19.66;54.11;100745.00;7388523;19;20488;-86
2024/04/23 02:20:11;;;;;;;4.22;0.80;;;;;;;19.55;54.25;100725.28;7390229;19;20089;-87
2024/04/23 02:22:37;;;;;;;0.90;0.60;;;;;;;19.71;53.74;100722.94;7388918;19;20153;-87
2024/04/23 02:25:04;;;;;;;3.40;1.33;;;;;;;19.91;53.10;100712.06;7388511;19;20465;-87
2024/04/23 02:27:30;;;;;;;1.15;0.70;;;;;;;19.73;52.89;100706.97;7388271;19;20018;-87
2024/04/23 02:29:59;;;;;;;4.43;1.17;;;;;;;19.49;53.19;100696.25;7389175;19;20465;-86
2024/04/23 02:32:25;;;;;;;3.20;1.00;;;;;;;19.66;53.08;100688.47;7392506;19;20486;-86
2024/04/23 02:34:51;;;;;;;0.45;0.45;;;;;;;19.64;52.76;100693.88;7391045;19;20027;-86
2024/04/23 02:37:18;;;;;;;3.85;1.17;;;;;;;19.81;52.52;100693.09;7394210;19;20078;-87
2024/04/23 02:39:44;;;;;;;0.50;0.50;;;;;;;19.85;52.00;100699.22;7390137;19;20052;-87
2024/04/23 02:42:10;;;;;;;0.30;0.30;;;;;;;19.80;51.60;100697.19;7389260;19;20370;-87
2024/04/23 02:44:36;;;;;;;0.57;0.57;;;;;;;19.74;51.24;100682.31;7390251;19;20018;-87
2024/04/23 02:47:02;;;;;;;0.50;0.50;;;;;;;19.68;51.35;100685.91;7390777;19;20402;-87
2024/04/23 02:49:28;;;;;;;0.77;0.77;;;;;;;19.58;51.51;100698.78;7389334;19;20487;-87
2024/04/23 02:51:55;;;;;;;0.95;0.95;;;;;;;19.51;51.97;100701.41;7388963;19;20011;-87
2024/04/23 02:54:22;;;;;;;0.60;0.60;;;;;;;19.49;51.94;100690.59;7390317;19;20018;-87
2024/04/23 02:56:50;;;;;;;0.60;0.57;;;;;;;19.91;51.51;100683.00;7389247;19;20022;-87
2024/04/23 02:59:17;;;;;;;2.50;0.80;;;;;;;18.89;53.10;100677.28;7395110;19;20015;-87
2024/04/23 03:01:44;;;;;;;1.15;1.15;;;;;;;19.07;53.22;100671.13;7394614;19;20680;-88
2024/04/23 03:04:10;;;;;;;0.75;0.55;;;;;;;19.22;52.95;100674.44;7394042;19;20457;-87
2024/04/23 03:06:36;;;;;;;5.57;0.85;;;;;;;19.31;52.79;100682.66;7396962;19;20034;-87
2024/04/23 03:09:03;;;;;;;0.80;0.80;;;;;;;19.15;53.13;100683.44;7394501;19;20039;-87
2024/04/23 03:11:29;;;;;;;1.13;1.02;;;;;;;19.15;53.16;100669.31;7394595;19;20025;-87
2024/04/23 03:13:55;;;;;;;0.30;0.30;;;;;;;19.15;53.28;100672.13;7393384;19;20031;-87
2024/04/23 03:16:21;;;;;;;3.50;1.58;;;;;;;18.93;54.08;100669.31;7397763;19;20011;-87
2024/04/23 03:18:47;;;;;;;9.10;1.85;;;;;;;18.75;54.33;100672.69;7394833;19;20048;-88
2024/04/23 03:21:13;;;;;;;0.50;0.50;;;;;;;19.25;53.55;100679.03;7394507;19;20011;-88
2024/04/23 03:23:40;;;;;;;0.57;0.57;;;;;;;18.82;53.91;100672.13;7396386;19;20026;-87
2024/04/23 03:26:06;;;;;;;0.47;0.47;;;;;;;18.87;53.74;100671.38;7396431;19;20019;-87
2024/04/23 03:28:32;;;;;;;0.57;0.57;;;;;;;18.81;53.82;100673.44;7394840;19;20035;-87
2024/04/23 03:30:58;;;;;;;0.30;0.30;;;;;;;18.77;54.14;100675.75;7394488;19;20038;-87
2024/04/23 03:33:25;;;;;;;0.30;0.30;;;;;;;18.72;54.44;100673.69;7394275;19;20029;-86
2024/04/23 03:35:51;;;;;;;1.42;0.98;;;;;;;18.46;55.33;100678.78;7396889;19;20011;-88
2024/04/23 03:38:17;;;;;;;0.30;0.30;;;;;;;18.66;55.17;100675.75;7395498;19;20014;-87
2024/04/23 03:40:43;;;;;;;1.95;1.02;;;;;;;18.12;56.41;100675.88;7392671;19;20014;-87
2024/04/23 03:43:09;;;;;;;0.30;0.30;;;;;;;18.54;55.93;100671.34;7396810;19;20094;-88
2024/04/23 03:45:35;;;;;;;3.17;0.63;;;;;;;18.75;55.62;100679.06;7396952;19;20018;-87
2024/04/23 03:48:02;;;;;;;0.70;0.70;;;;;;;18.89;55.37;100678.06;7394769;19;20015;-87
2024/04/23 03:50:28;;;;;;;8.80;1.13;;;;;;;18.92;54.89;100670.63;7393630;19;20054;-86
2024/04/23 03:52:54;;;;;;;0.70;0.70;;;;;;;19.05;54.75;100673.69;7394587;19;20524;-87
2024/04/23 03:55:20;;;;;;;0.32;0.32;;;;;;;19.05;54.39;100667.28;7396800;19;20022;-87
2024/04/23 03:57:46;;;;;;;0.47;0.47;;;;;;;19.27;54.49;100679.31;7396844;19;20010;-87
2024/04/23 04:00:12;;;;;;;1.38;0.82;;;;;;;18.96;54.91;100682.41;7393799;19;20022;-86
2024/04/23 04:08:08;;;;;;;0.63;0.50;;;;;;;20.26;53.32;100677.47;7397785;19;20564;-87
2024/04/23 04:10:34;;;;;;;0.45;0.45;;;;;;;20.27;53.07;100670.53;7392002;19;20603;-87
2024/04/23 04:13:00;;;;;;;0.38;0.38;;;;;;;20.37;52.96;100671.75;7395184;19;20127;-85
2024/04/23 04:15:26;;;;;;;0.57;0.57;;;;;;;20.56;52.15;100669.81;7395512;19;20113;-87
2024/04/23 04:17:52;;;;;;;3.55;0.70;;;;;;;20.61;52.65;100674.69;7393819;19;20015;-87
2024/04/23 04:20:18;;;;;;;10.10;1.00;;;;;;;20.50;52.55;100665.50;7391833;19;20078;-87
2024/04/23 04:22:44;;;;;;;0.32;0.32;;;;;;;20.66;52.27;100670.28;7395887;19;20354;-86
2024/04/23 04:25:11;;;;;;;2.28;1.33;;;;;;;21.00;52.12;100666.66;7393344;19;20022;-86
2024/04/23 04:27:37;;;;;;;1.42;0.75;;;;;;;21.41;51.14;100677.09;7393408;19;20018;-87
2024/04/23 04:30:03;;;;;;;1.10;0.80;;;;;;;21.17;50.93;100668.56;7391308;19;20006;-87
2024/04/23 04:32:29;;;;;;;1.00;0.90;;;;;;;21.28;50.70;100674.13;7390921;19;20014;-86
2024/04/23 04:34:55;;;;;;;0.40;0.40;;;;;;;20.82;50.50;100667.31;7393168;19;20021;-87
2024/04/23 04:37:21;;;;;;;1.80;0.85;;;;;;;20.57;50.94;100662.88;7396528;19;20010;-86
2024/04/23 04:39:48;;;;;;;0.40;0.40;;;;;;;20.47;50.50;100670.13;7392428;19;20014;-87
2024/04/23 04:42:14;;;;;;;0.98;0.98;;;;;;;20.54;50.26;100663.16;7392992;19;20082;-87
2024/04/23 04:44:40;;;;;;;0.30;0.30;;;;;;;20.52;49.90;100677.84;7393047;19;20022;-86
2024/04/23 04:47:06;;;;;;;3.03;0.93;;;;;;;20.40;50.11;100679.19;7392107;19;20022;-87
2024/04/23 04:49:32;;;;;;;0.50;0.50;;;;;;;20.31;49.83;100676.69;7392971;19;20031;-87
2024/04/23 04:51:58;;;;;;;1.60;0.65;;;;;;;20.27;49.68;100679.03;7392483;19;20026;-87
2024/04/23 04:54:24;;;;;;;0.50;0.50;;;;;;;20.16;49.66;100679.06;7393255;19;20031;-87
2024/04/23 04:56:50;;;;;;;0.55;0.55;;;;;;;20.22;49.47;100688.31;7392404;19;20387;-86
2024/04/23 04:59:16;;;;;;;10.73;1.27;;;;;;;20.22;49.25;100682.66;7392638;19;20022;-87
2024/04/23 05:01:42;;;;;;;1.05;1.05;;;;;;;20.26;49.31;100683.13;7392573;19;20018;-87
2024/04/23 05:04:09;;;;;;;0.40;0.40;;;;;;;19.93;49.30;100672.72;7391338;19;20018;-87
2024/04/23 05:06:36;;;;;;;0.73;0.73;;;;;;;19.98;49.34;100679.66;7392818;19;20042;-87
2024/04/23 05:09:03;;;;;;;14.23;1.20;;;;;;;19.59;49.71;100672.09;7390976;19;20049;-87
2024/04/23 05:11:29;;;;;;;1.88;0.45;;;;;;;19.56;49.55;100684.41;7390765;19;20019;-87
2024/04/23 05:13:55;;;;;;;0.60;0.60;;;;;;;19.54;49.24;100666.44;7390981;19;20477;-88
2024/04/23 05:16:21;;;;;;;0.80;0.80;;;;;;;19.39;49.63;100674.44;7392411;19;20114;-87
2024/04/23 05:18:47;;;;;;;0.60;0.60;;;;;;;19.76;49.04;100674.06;7391981;19;20015;-87
2024/04/23 05:21:14;;;;;;;0.90;0.90;;;;;;;19.90;48.84;100675.84;7389024;19;20476;-86
2024/04/23 05:23:40;;;;;;;2.45;1.33;;;;;;;19.99;48.20;100681.19;7389613;19;20039;-87
2024/04/23 05:26:06;;;;;;;0.85;0.60;;;;;;;19.54;49.04;100684.16;7393486;19;20038;-87
2024/04/23 05:28:32;;;;;;;0.70;0.63;;;;;;;19.73;49.30;100681.53;7392658;19;20030;-87
2024/04/23 05:33:43;;;;;;;6.90;1.13;;;;;;;19.92;49.67;100693.81;7392014;19;20014;-87
2024/04/23 05:36:09;;;;;;;0.60;0.60;;;;;;;19.95;50.33;100703.28;7392179;19;20018;-87
2024/04/23 05:38:35;;;;;;;0.68;0.68;;;;;;;20.46;49.57;100699.75;7392321;19;20014;-87
2024/04/23 05:41:01;;;;;;;0.50;0.45;;;;;;;19.73;51.10;100686.44;7388768;19;20010;-87
2024/04/23 05:43:27;;;;;;;1.80;1.15;;;;;;;20.16;50.77;100684.72;7391880;19;20018;-87
2024/04/23 05:45:53;;;;;;;2.70;1.10;;;;;;;20.14;51.01;100696.53;7390707;19;20018;-86
2024/04/23 05:48:57;;;;;;;1.05;1.05;;;;;;;20.37;50.81;100691.56;7391575;19;20106;-87
2024/04/23 05:52:20;;;;;;;0.82;0.82;;;;;;;20.62;50.48;100692.44;7390045;19;20086;-86
2024/04/23 05:55:33;;;;;;;0.75;0.75;;;;;;;20.03;51.71;100688.09;7394724;19;20015;-87
2024/04/23 05:57:59;;;;;;;0.60;0.60;;;;;;;20.26;51.84;100688.78;7390541;19;20014;-87
2024/04/23 06:00:25;;;;;;;5.70;1.70;;;;;;;20.46;51.49;100691.25;7388375;19;20018;-90
2024/04/23 06:02:52;;;;;;;2.83;1.35;;;;;;;20.46;51.44;100691.25;7391105;19;20022;-89
2024/04/23 06:05:18;;;;;;;0.38;0.38;;;;;;;20.57;50.67;100693.25;7390000;19;20085;-89
2024/04/23 06:07:44;;;;;;;0.52;0.40;;;;;;;20.13;51.08;100702.72;7396658;19;20026;-89
2024/04/23 06:10:10;;;;;;;0.85;0.85;;;;;;;20.25;50.49;100692.91;7390779;19;20019;-90
2024/04/23 06:12:36;;;;;;;0.75;0.60;;;;;;;20.25;50.67;100698.56;7389706;19;20031;-90
2024/04/23 06:15:02;;;;;;;1.10;0.98;;;;;;;20.15;50.41;100700.13;7392228;19;20023;-90
2024/04/23 06:17:34;;;;;;;8.77;1.00;;;;;;;20.03;50.49;100695.81;7390892;19;20022;-90
2024/04/23 06:20:01;;;;;;;0.52;0.52;;;;;;;20.20;50.66;100693.69;7389557;19;20091;-89
2024/04/23 06:22:29;;;;;;;1.30;0.50;;;;;;;20.27;50.39;100685.44;7390938;19;20477;-89
2024/04/23 06:24:55;;;;;;;13.95;1.58;;;;;;;20.32;50.82;100698.78;7390563;19;20017;-90
2024/04/23 06:27:25;;;;;;;0.40;0.40;;;;;;;20.26;50.89;100695.22;7392190;19;20036;-89
2024/04/23 06:29:52;;;;;;;0.45;0.45;;;;;;;20.31;50.80;100685.91;7390612;19;20031;-89
2024/04/23 06:32:20;;;;;;;0.40;0.28;;;;;;;20.23;51.02;100692.66;7394156;19;20018;-88
2024/04/23 06:34:47;;;;;;;1.75;0.57;;;;;;;20.18;50.93;100684.94;7399372;19;20021;-88
2024/04/23 06:37:14;;;;;;;1.80;1.08;;;;;;;20.18;50.62;100684.94;7401330;19;20006;-89
2024/04/23 06:39:42;;;;;;;0.88;0.88;;;;;;;20.13;50.40;100692.19;7395603;19;20042;-88
2024/04/23 06:42:09;;;;;;;0.75;0.75;;;;;;;19.70;50.64;100696.72;7396984;19;20010;-88
2024/04/23 06:44:35;;;;;;;3.75;1.50;;;;;;;20.31;49.95;100696.50;7397340;19;20022;-88
2024/04/23 06:47:01;;;;;;;1.05;0.50;;;;;;;20.46;49.99;100699.75;7397050;19;20007;-88
2024/04/23 06:49:27;;;;;;;0.65;0.65;;;;;;;20.70;50.14;100690.56;7396841;19;20469;-89
2024/04/23 06:51:55;;;;;;;1.38;0.80;;;;;;;20.69;50.51;100698.28;7397200;19;20022;-89
2024/04/23 06:54:21;;;;;;;0.32;0.32;;;;;;;20.55;50.73;100698.66;7395442;19;20007;-88
2024/04/23 06:56:50;;;;;;;6.13;0.93;;;;;;;20.69;50.50;100692.63;7396503;19;20014;-88
2024/04/23 06:59:16;;;;;;;0.45;0.45;;;;;;;21.05;50.17;100685.66;7396912;19;20055;-88
2024/04/23 07:01:43;;;;;;;1.20;0.75;;;;;;;21.28;49.70;100691.13;7394356;19;20035;-88
2024/04/23 07:04:10;;;;;;;0.20;0.20;;;;;;;21.18;49.80;100687.88;7396200;19;20019;-89
2024/04/23 07:06:36;;;;;;;0.88;0.68;;;;;;;20.36;51.28;100690.00;7398144;19;20356;-89
2024/04/23 07:09:03;;;;;;;4.25;1.58;;;;;;;20.82;50.74;100680.69;7396902;19;20022;-88
2024/04/23 07:11:30;;;;;;;1.40;1.33;;;;;;;21.19;50.36;100685.81;7394342;19;20039;-88
2024/04/23 07:13:56;;;;;;;0.52;0.52;;;;;;;20.96;50.44;100688.06;7393745;19;20010;-87
2024/04/23 07:16:22;;;;;;;0.65;0.63;;;;;;;21.25;49.50;100692.19;7397987;19;20544;-87
2024/04/23 07:18:48;;;;;;;1.45;0.50;;;;;;;20.82;50.18;100700.50;7394478;19;20015;-87
2024/04/23 07:21:14;;;;;;;0.38;0.38;;;;;;;21.21;49.69;100697.38;7392640;19;20028;-88
2024/04/23 07:23:40;;;;;;;1.00;0.98;;;;;;;21.23;49.23;100695.56;7395457;19;20023;-87
2024/04/23 07:26:06;;;;;;;0.45;0.45;;;;;;;21.13;49.34;100697.97;7395308;19;20030;-86
2024/04/23 07:28:32;;;;;;;2.10;0.98;;;;;;;22.02;48.00;100701.94;7397419;19;20019;-87
2024/04/23 07:31:00;;;;;;;2.92;0.95;;;;;;;22.31;47.55;100698.97;7394491;19;20011;-87
2024/04/23 07:33:26;;;;;;;0.80;0.55;;;;;;;21.98;47.15;100696.59;7393978;19;20480;-87
2024/04/23 07:35:52;;;;;;;2.17;1.25;;;;;;;22.57;46.87;100696.28;7395033;19;20011;-87
2024/04/23 07:38:18;;;;;;;0.32;0.32;;;;;;;22.59;45.88;100709.94;7396028;19;20024;-87
2024/04/23 07:40:46;;;;;;;0.60;0.60;;;;;;;22.77;45.65;100697.03;7396777;19;20018;-88
2024/04/23 07:43:14;;;;;;;0.63;0.63;;;;;;;22.86;46.23;100702.31;7394640;19;20457;-87
2024/04/23 07:45:41;;;;;;;1.02;0.95;;;;;;;22.22;46.45;100699.34;7395827;19;20093;-88
2024/04/23 07:48:07;;;;;;;0.40;0.40;;;;;;;22.17;46.83;100691.69;7394818;19;20015;-87
2024/04/23 07:50:33;;;;;;;1.23;0.80;;;;;;;21.49;47.26;100692.22;7393278;19;20052;-87
2024/04/23 07:53:03;;;;;;;3.70;2.05;;;;;;;21.48;47.56;100687.84;7395632;19;20014;-87
2024/04/23 07:55:30;;;;;;;2.55;0.60;;;;;;;21.72;47.28;100696.34;7397663;19;20030;-87
2024/04/23 07:57:56;;;;;;;0.68;0.45;;;;;;;21.75;47.62;100703.78;7394020;19;20042;-87
2024/04/23 08:00:27;;;;;;;1.65;0.50;;;;;;;21.92;46.96;100697.97;7393776;19;20039;-87
2024/04/23 08:02:54;;;;;;;3.53;0.70;;;;;;;22.14;47.17;100692.75;7394134;19;20026;-86
2024/04/23 08:05:21;;;;;;;0.60;0.60;;;;;;;22.04;46.89;100685.16;7396842;19;20035;-87
2024/04/23 08:07:47;;;;;;;0.40;0.40;;;;;;;21.85;47.29;100699.31;7400544;19;20006;-88
2024/04/23 08:10:19;;;;;;;3.28;1.25;;;;;;;22.21;46.73;100695.00;7393747;19;20014;-89
2024/04/23 08:12:47;;;;;;;0.35;0.35;;;;;;;22.10;46.96;100692.31;7396149;19;20018;-88
2024/04/23 08:15:14;;;;;;;7.43;0.70;;;;;;;22.29;48.05;100690.22;7394430;19;20034;-87
2024/04/23 08:17:43;;;;;;;4.85;1.10;;;;;;;22.56;47.67;100694.75;7396463;19;20029;-88
2024/04/23 08:20:14;;;;;;;1.40;0.70;;;;;;;22.98;47.02;100695.91;7394483;19;20021;-88
2024/04/23 08:22:40;;;;;;;0.53;0.43;;;;;;;23.01;46.34;100696.91;7395736;19;20495;-88
2024/04/23 08:25:09;;;;;;;6.22;0.45;;;;;;;22.88;45.88;100703.31;7393796;19;20014;-89
2024/04/23 08:27:36;;;;;;;0.45;0.45;;;;;;;22.82;45.62;100704.72;7393580;19;20015;-88
2024/04/23 08:30:03;;;;;;;0.63;0.52;;;;;;;22.63;45.72;100704.75;7397351;19;20018;-88
2024/04/23 08:32:29;;;;;;;0.30;0.30;;;;;;;22.81;45.53;100706.00;7391852;19;20015;-88
2024/04/23 08:34:55;;;;;;;4.85;1.23;;;;;;;22.80;45.64;100708.09;7394386;19;20046;-88
2024/04/23 08:37:21;;;;;;;2.63;1.65;;;;;;;23.10;45.57;100707.88;7396761;19;20032;-88
2024/04/23 08:39:47;;;;;;;0.32;0.32;;;;;;;23.33;45.72;100694.81;7392687;19;20018;-88
2024/04/23 08:42:17;;;;;;;0.32;0.32;;;;;;;23.39;45.55;100704.00;7397796;19;20022;-88
2024/04/23 08:44:44;;;;;;;1.15;0.70;;;;;;;23.65;45.64;100703.28;7393685;19;20010;-88
2024/04/23 08:47:11;;;;;;;0.98;0.90;;;;;;;23.35;45.11;100695.81;7394142;19;20466;-88
2024/04/23 08:49:39;;;;;;;0.20;0.20;;;;;;;23.47;45.66;100696.38;7392235;19;20023;-88
2024/04/23 08:52:07;;;;;;;0.17;0.17;;;;;;;23.65;44.41;100703.28;7392690;19;20014;-88
2024/04/23 08:54:33;;;;;;;0.68;0.68;;;;;;;23.41;44.67;100698.56;7394064;19;20014;-88
2024/04/23 08:57:00;;;;;;;9.35;1.25;;;;;;;23.57;44.47;100694.63;7393216;19;20011;-87
2024/04/23 08:59:33;;;;;;;2.05;1.27;;;;;;;23.85;43.72;100697.72;7393716;19;20014;-88
2024/04/23 09:02:03;;;;;;;1.00;0.73;;;;;;;23.78;43.51;100681.28;7392956;19;20027;-87
2024/04/23 09:04:30;;;;;;;0.80;0.65;;;;;;;24.47;43.14;100680.09;7392343;19;20015;-88
2024/04/23 09:06:57;;;;;;;1.23;0.30;;;;;;;24.53;43.20;100686.44;7393638;19;20023;-87
2024/04/23 09:09:25;;;;;;;2.80;0.95;;;;;;;24.67;42.92;100673.66;7392601;19;20018;-88
2024/04/23 09:11:52;;;;;;;2.13;0.77;;;;;;;24.59;42.82;100678.53;7391359;19;20025;-88
2024/04/23 09:14:18;;;;;;;2.40;0.57;;;;;;;24.63;41.87;100687.47;7391064;19;20579;-89
2024/04/23 09:16:44;;;;;;;1.40;0.65;;;;;;;24.09;41.62;100688.97;7392767;19;20506;-88
2024/04/23 09:19:11;;;;;;;0.63;0.30;;;;;;;24.16;41.37;100675.38;7392312;19;20052;-88
2024/04/23 09:21:37;;;;;;;0.35;0.35;;;;;;;24.17;42.06;100685.44;7390238;19;20034;-89
2024/04/23 09:24:04;;;;;;;1.60;0.60;;;;;;;24.34;41.98;100669.53;7391067;19;20508;-88
2024/04/23 09:26:30;;;;;;;1.85;1.02;;;;;;;24.48;42.11;100678.78;7392332;19;20424;-88
2024/04/23 09:28:57;;;;;;;0.70;0.70;;;;;;;24.80;41.53;100676.47;7392353;19;20027;-88
2024/04/23 09:31:24;;;;;;;0.30;0.30;;;;;;;24.75;41.74;100677.41;7390433;19;20014;-88
2024/04/23 09:33:55;;;;;;;2.90;0.77;;;;;;;24.35;41.69;100673.88;7390796;19;20021;-88
2024/04/23 09:36:23;;;;;;;1.70;0.45;;;;;;;23.99;42.35;100679.31;7393028;19;20022;-87
2024/04/23 09:38:56;;;;;;;0.63;0.43;;;;;;;23.40;42.81;100679.97;7390461;19;20090;-87
2024/04/23 09:41:26;;;;;;;2.53;0.73;;;;;;;22.85;42.71;100687.34;7389512;19;20046;-87
2024/04/23 09:43:57;;;;;;;2.28;0.95;;;;;;;22.29;43.48;100690.22;7391704;19;20495;-87
2024/04/23 09:46:25;;;;;;;1.40;1.08;;;;;;;22.24;43.99;100685.38;7392011;19;20034;-90
2024/04/23 09:48:52;;;;;;;1.33;0.80;;;;;;;21.99;44.46;100686.75;7390648;19;20021;-85
2024/04/23 09:51:19;;;;;;;1.95;0.55;;;;;;;22.02;43.78;100684.94;7389933;19;20490;-89
2024/04/23 09:53:49;;;;;;;0.43;0.40;;;;;;;21.61;43.39;100685.13;7389893;19;20548;-88
2024/04/23 09:56:19;;;;;;;1.52;1.05;;;;;;;21.45;44.56;100686.84;7396038;19;20082;-89
2024/04/23 09:58:46;;;;;;;0.45;0.20;;;;;;;21.65;44.44;100685.59;7391666;19;20033;-89
2024/04/23 10:01:16;;;;;;;0.75;0.57;;;;;;;21.45;44.75;100683.25;7389452;19;20039;-88
2024/04/23 10:03:42;;;;;;;0.47;0.45;;;;;;;22.17;44.17;100673.91;7388903;19;20014;-89
2024/04/23 10:06:13;;;;;;;0.55;0.55;;;;;;;21.83;45.06;100673.53;7389221;19;20491;-88
2024/04/23 10:08:52;;;;;;;0.38;0.38;;;;;;;22.20;45.40;100672.84;7387138;19;20093;-88
2024/04/23 10:11:25;;;;;;;1.48;0.35;;;;;;;22.65;45.36;100673.75;7385330;19;20025;-89
2024/04/23 10:13:57;;;;;;;0.30;0.30;;;;;;;23.29;44.92;100675.22;7385977;19;20034;-89
2024/04/23 10:16:31;;;;;;;0.28;0.28;;;;;;;23.35;44.70;100680.84;7387069;19;20023;-89
2024/04/23 10:19:09;;;;;;;8.18;1.02;;;;;;;23.26;44.66;100669.84;7385418;19;20590;-88
2024/04/23 10:21:41;;;;;;;2.45;0.50;;;;;;;22.54;45.97;100671.78;7384905;19;20509;-89
2024/04/23 10:24:12;;;;;;;0.82;0.60;;;;;;;22.91;45.24;100664.53;7391811;19;20353;-88
2024/04/23 10:26:45;;;;;;;;;;;;;;;22.95;45.48;100665.75;7392234;19;20053;-88
2024/04/23 10:29:13;;;;;;;1.88;0.75;;;;;;;22.55;45.37;100661.97;7389162;19;20239;-88
2024/04/23 10:31:42;;;;;;;0.10;0.10;;;;;;;22.47;45.01;100669.59;7388582;19;20090;-88
2024/04/23 10:34:11;;;;;;;0.20;0.20;;;;;;;22.33;45.30;100667.97;7388775;19;20351;-89
2024/04/23 10:36:38;;;;;;;3.67;0.20;;;;;;;22.09;44.60;100665.22;7390635;19;20029;-88
2024/04/23 10:39:06;;;;;;;0.30;0.20;;;;;;;21.88;44.96;100659.31;7390679;19;20395;-89
2024/04/23 10:41:37;;;;;;;0.70;0.70;;;;;;;22.00;44.55;100665.63;7388085;19;20492;-89
2024/04/23 10:44:10;;;;;;;0.52;0.47;;;;;;;22.12;44.22;100661.31;7390248;19;20011;-88
2024/04/23 10:46:38;;;;;;;0.63;0.40;;;;;;;22.22;44.53;100664.56;7389482;19;20025;-89
2024/04/23 10:49:15;;;;;;;0.20;0.20;;;;;;;22.00;44.96;100659.16;7392347;19;20018;-89
2024/04/23 10:51:46;;;;;;;0.30;0.30;;;;;;;21.10;46.46;100648.03;7387992;19;20572;-89
2024/04/23 10:54:13;;;;;;;4.45;0.70;;;;;;;21.57;46.19;100654.22;7385742;19;20010;-89
2024/04/23 10:56:40;;;;;;;0.40;0.35;;;;;;;22.01;44.37;100655.78;7390092;19;20015;-89
2024/04/23 10:59:13;;;;;;;0.73;0.52;;;;;;;21.98;44.31;100651.22;7390947;19;20046;-88
2024/04/23 11:01:56;;;;;;;3.58;0.70;;;;;;;22.02;44.31;100648.81;7388535;19;20022;-89
2024/04/23 11:04:33;;;;;;;0.13;0.13;;;;;;;22.27;44.22;100661.63;7390121;19;20390;-89
2024/04/23 11:07:07;;;;;;;3.15;0.57;;;;;;;22.49;44.40;100658.47;7393840;19;20489;-89
2024/04/23 11:09:37;;;;;;;3.03;0.60;;;;;;;22.66;44.17;100643.25;7389735;19;20082;-89
2024/04/23 11:12:24;;;;;;;0.20;0.20;;;;;;;22.94;43.54;100638.66;7388525;19;20010;-88
2024/04/23 11:14:54;;;;;;;4.03;0.60;;;;;;;23.33;42.50;100635.91;7389169;19;20024;-89
2024/04/23 11:17:21;;;;;;;1.30;0.43;;;;;;;24.16;42.41;100629.81;7391143;19;20011;-89
2024/04/23 11:19:52;;;;;;;0.82;0.40;;;;;;;24.41;42.05;100628.19;7395363;19;20011;-88
2024/04/23 11:22:50;;;;;;;0.52;0.45;;;;;;;24.49;41.45;100632.69;7398410;19;20520;-90
2024/04/23 11:25:27;;;;;;;5.00;0.43;;;;;;;24.50;41.03;100633.41;7395856;19;20015;-82
2024/04/23 11:27:54;;;;;;;2.88;0.25;;;;;;;24.12;40.64;100630.16;7394608;19;20030;-82
2024/04/23 11:30:20;;;;;;;0.60;0.30;;;;;;;24.03;40.66;100630.59;7396301;19;20035;-83
2024/04/23 11:32:47;;;;;;;3.28;0.35;;;;;;;23.90;41.02;100630.63;7396762;19;20022;-82
2024/04/23 11:35:13;;;;;;;4.55;0.35;;;;;;;23.98;40.71;100632.25;7395152;19;20018;-82
2024/04/23 11:37:40;;;;;;;2.85;1.23;;;;;;;25.07;39.93;100635.13;7396714;19;20014;-83